Time;durP1;ratioP1;P1;durP2;ratioP2;P2;SDS_P1;SDS_P2;PMS_P1;PMS_P2;Temp;Humidity;BMP_temperature;BMP_pressure;BME280_temperature;BME280_humidity;BME280_pressure;Samples;Min_cycle;Max_cycle;Signal;HPM_P1;HPM_P2
2023/07/20 05:53:29;;;;;;;;;4.33;4.33;;;;;22.55;50.90;101380.50;5087158;27;45527;-75
2023/07/20 05:55:55;;;;;;;;;4.00;4.00;;;;;22.72;51.06;101383.47;5090989;27;45511;-74
2023/07/20 05:58:20;;;;;;;;;4.67;4.33;;;;;22.92;50.78;101386.09;5075747;27;45429;-74
2023/07/20 06:00:49;;;;;;;;;4.67;4.67;;;;;23.11;50.76;101377.03;5095893;27;45448;-74
2023/07/20 06:03:16;;;;;;;;;3.00;3.00;;;;;23.27;50.53;101373.66;5100631;27;46143;-74
2023/07/20 06:05:42;;;;;;;;;7.00;4.00;;;;;23.46;50.23;101378.13;5076439;27;45541;-74
2023/07/20 06:08:07;;;;;;;;;4.00;4.00;;;;;23.64;49.84;101374.59;5088715;27;45370;-74
2023/07/20 06:10:32;;;;;;;;;5.33;5.33;;;;;23.76;49.54;101369.78;5081728;27;45645;-74
2023/07/20 06:12:58;;;;;;;;;3.00;2.00;;;;;23.92;49.36;101377.22;5098309;27;46430;-73
2023/07/20 06:15:31;;;;;;;;;3.00;3.00;;;;;24.06;49.13;101382.09;5073619;27;54686;-71
2023/07/20 06:17:57;;;;;;;;;3.67;3.67;;;;;24.18;49.02;101379.16;5084531;27;45359;-75
2023/07/20 06:20:23;;;;;;;;;4.00;3.33;;;;;24.29;48.65;101378.06;5090028;27;45375;-76
2023/07/20 06:22:49;;;;;;;;;3.00;3.00;;;;;24.39;48.54;101381.53;5088547;27;46199;-75
2023/07/20 06:25:14;;;;;;;;;4.67;4.67;;;;;24.48;48.24;101385.13;5080992;27;45713;-74
2023/07/20 06:27:39;;;;;;;;;5.00;5.00;;;;;24.53;48.03;101368.38;5118011;27;45452;-74
2023/07/20 06:30:05;;;;;;;;;4.00;4.00;;;;;24.63;47.99;101377.25;5089275;27;45487;-72
2023/07/20 06:32:31;;;;;;;;;3.00;3.00;;;;;24.69;47.69;101379.31;5086348;27;46603;-73
2023/07/20 06:34:56;;;;;;;;;3.67;3.67;;;;;24.78;47.61;101373.94;5081933;27;45500;-74
2023/07/20 06:37:22;;;;;;;;;5.00;5.00;;;;;24.83;47.34;101361.63;5084640;27;47513;-72
2023/07/20 06:39:47;;;;;;;;;6.00;3.67;;;;;24.89;47.31;101370.13;5078135;27;45541;-72
2023/07/20 06:42:12;;;;;;;;;3.00;3.00;;;;;24.88;47.00;101358.41;5087693;27;54991;-71
2023/07/20 06:44:37;;;;;;;;;4.67;4.00;;;;;24.95;46.82;101367.63;5084601;27;47220;-72
2023/07/20 06:47:03;;;;;;;;;5.00;4.00;;;;;24.98;46.57;101375.41;5078797;27;46350;-72
2023/07/20 06:49:28;;;;;;;;;6.00;5.00;;;;;25.00;46.31;101372.56;5083488;27;45559;-72
2023/07/20 06:51:54;;;;;;;;;5.00;4.33;;;;;25.00;46.29;101377.97;5075031;27;46312;-72
2023/07/20 06:54:20;;;;;;;;;4.33;3.67;;;;;25.00;46.45;101372.56;5077981;27;45648;-75
2023/07/20 06:56:45;;;;;;;;;4.00;4.00;;;;;25.02;46.19;101375.09;5082534;27;45457;-73
2023/07/20 06:59:11;;;;;;;;;3.33;3.33;;;;;24.99;46.02;101370.84;5075287;27;45473;-74
2023/07/20 07:01:36;;;;;;;;;9.00;5.00;;;;;24.98;45.86;101370.00;5080747;27;45628;-74
2023/07/20 07:04:01;;;;;;;;;5.00;5.00;;;;;24.97;46.07;101364.75;5079236;27;45440;-73
2023/07/20 07:06:27;;;;;;;;;6.33;4.67;;;;;24.98;46.32;101361.84;5071515;28;45662;-72
2023/07/20 07:08:53;;;;;;;;;4.33;4.33;;;;;25.02;45.88;101362.38;5069797;27;45598;-73
2023/07/20 07:11:18;;;;;;;;;5.00;3.67;;;;;25.05;45.96;101356.63;5073039;28;47091;-73
2023/07/20 07:13:46;;;;;;;;;5.00;5.00;;;;;25.04;45.38;101351.34;5063881;27;45520;-73
2023/07/20 07:16:11;;;;;;;;;3.33;3.33;;;;;25.04;45.92;101359.50;5068512;28;45676;-76
2023/07/20 07:18:37;;;;;;;;;3.00;2.00;;;;;25.06;45.83;101361.03;5073675;27;45380;-75
2023/07/20 07:21:02;;;;;;;;;3.00;3.00;;;;;25.10;45.69;101356.13;5069976;27;46083;-76
2023/07/20 07:23:27;;;;;;;;;4.33;3.00;;;;;25.11;45.85;101358.69;5074713;27;45466;-73
2023/07/20 07:25:53;;;;;;;;;3.00;3.00;;;;;25.12;45.51;101354.97;5070484;28;45665;-72
2023/07/20 07:28:18;;;;;;;;;3.00;3.00;;;;;25.13;45.67;101353.06;5068258;28;52156;-72
2023/07/20 07:30:43;;;;;;;;;5.00;3.67;;;;;25.11;46.01;101342.41;5065406;28;46196;-76
2023/07/20 07:33:10;;;;;;;;;3.00;3.00;;;;;25.17;45.72;101350.91;5063308;28;45688;-74
2023/07/20 07:35:36;;;;;;;;;4.00;2.67;;;;;25.18;45.36;101348.00;5074470;27;45349;-74
2023/07/20 07:38:01;;;;;;;;;2.67;2.67;;;;;25.19;45.59;101359.72;5062927;28;45779;-73
2023/07/20 07:40:26;;;;;;;;;3.67;3.67;;;;;25.20;45.45;101364.13;5065584;27;46160;-74
2023/07/20 07:42:52;;;;;;;;;3.67;3.67;;;;;25.22;45.41;101364.84;5062702;27;45882;-72
2023/07/20 07:45:17;;;;;;;;;4.33;4.00;;;;;25.23;45.19;101361.97;5067993;28;45566;-74
2023/07/20 07:47:43;;;;;;;;;3.00;3.00;;;;;25.24;45.18;101360.94;5072979;28;45438;-75
2023/07/20 07:50:09;;;;;;;;;3.00;3.00;;;;;25.26;44.99;101364.31;5064198;27;45451;-74
2023/07/20 07:52:35;;;;;;;;;2.00;2.00;;;;;25.24;44.61;101351.94;5070455;27;45504;-75
2023/07/20 07:55:00;;;;;;;;;4.67;2.00;;;;;25.25;44.99;101356.34;5072421;27;45503;-75
2023/07/20 07:57:26;;;;;;;;;3.67;3.00;;;;;25.25;44.62;101353.63;5068735;27;45582;-74
2023/07/20 07:59:51;;;;;;;;;2.33;2.33;;;;;25.22;44.76;101356.69;5058332;27;46408;-75
2023/07/20 08:02:17;;;;;;;;;3.33;3.33;;;;;25.25;44.71;101353.63;5058405;28;45724;-76
2023/07/20 08:04:42;;;;;;;;;3.00;3.00;;;;;25.21;44.45;101349.53;5074804;27;45696;-75
2023/07/20 08:07:07;;;;;;;;;3.67;3.67;;;;;25.22;44.08;101352.09;5067036;27;45372;-76
2023/07/20 08:09:33;;;;;;;;;3.00;3.00;;;;;25.21;44.57;101346.81;5060650;28;46528;-75
2023/07/20 08:11:58;;;;;;;;;5.33;4.00;;;;;25.25;43.83;101348.19;5062086;27;45415;-75
2023/07/20 08:14:23;;;;;;;;;4.33;3.33;;;;;25.23;43.76;101342.09;5063492;28;45692;-75
2023/07/20 08:16:49;;;;;;;;;5.67;4.33;;;;;25.23;43.84;101351.09;5084205;27;45748;-75
2023/07/20 08:19:14;;;;;;;;;3.00;3.00;;;;;25.18;43.88;101345.28;5061127;27;47313;-75
2023/07/20 08:21:39;;;;;;;;;2.00;2.00;;;;;25.21;44.13;101342.25;5071340;27;45541;-75
2023/07/20 08:24:05;;;;;;;;;3.00;3.00;;;;;25.22;44.07;101337.66;5066838;27;45779;-76
2023/07/20 08:26:30;;;;;;;;;2.00;2.00;;;;;25.22;43.72;101338.50;5064406;27;45417;-75
2023/07/20 08:28:56;;;;;;;;;2.50;2.00;;;;;25.21;44.06;101341.38;5064716;28;45895;-75
2023/07/20 08:31:21;;;;;;;;;2.33;2.33;;;;;25.22;43.42;101337.66;5069617;27;45327;-75
2023/07/20 08:33:47;;;;;;;;;1.00;1.00;;;;;25.22;43.08;101341.22;5053046;27;45577;-75
2023/07/20 08:36:12;;;;;;;;;2.00;2.00;;;;;25.21;43.25;101333.22;5066785;27;45525;-77
2023/07/20 08:38:37;;;;;;;;;2.67;1.67;;;;;25.21;43.31;101328.66;5059393;27;46414;-82
2023/07/20 08:41:02;;;;;;;;;3.00;3.00;;;;;25.23;43.24;101326.66;5072015;28;45607;-77
2023/07/20 08:43:29;;;;;;;;;2.00;2.00;;;;;25.23;43.41;101314.91;5070497;27;49311;-77
2023/07/20 08:45:58;;;;;;;;;2.00;2.00;;;;;25.24;43.12;101314.75;5073696;27;45521;-76
2023/07/20 08:48:24;;;;;;;;;2.67;2.67;;;;;25.25;43.48;101323.72;5069519;27;48064;-76
2023/07/20 08:50:54;;;;;;;;;3.00;2.00;;;;;25.25;43.81;101323.72;5060259;28;45336;-77
2023/07/20 08:53:20;;;;;;;;;3.00;2.00;;;;;25.22;43.41;101314.06;5064805;27;45526;-75
2023/07/20 08:55:47;;;;;;;;;2.00;2.00;;;;;25.28;43.34;101326.13;5059688;28;45376;-77
2023/07/20 08:58:14;;;;;;;;;1.00;1.00;;;;;25.31;43.02;101325.81;5067926;27;46115;-77
2023/07/20 09:00:41;;;;;;;;;2.00;2.00;;;;;25.32;43.12;101323.91;5070517;27;45707;-75
2023/07/20 09:03:07;;;;;;;;;3.00;3.00;;;;;25.34;42.72;101320.03;5066645;27;45428;-75
2023/07/20 09:05:32;;;;;;;;;3.00;3.00;;;;;25.35;42.14;101326.31;5073100;27;45472;-75
2023/07/20 09:07:57;;;;;;;;;2.67;2.33;;;;;25.35;42.77;101329.03;5067651;28;46299;-74
2023/07/20 09:10:24;;;;;;;;;1.67;1.67;;;;;25.39;42.79;101331.22;5071253;28;45985;-77
2023/07/20 09:12:49;;;;;;;;;2.67;2.00;;;;;25.39;42.82;101327.69;5069808;28;45549;-77
2023/07/20 09:15:16;;;;;;;;;3.33;2.00;;;;;25.43;42.40;101328.19;5085899;27;45617;-78
2023/07/20 09:17:51;;;;;;;;;2.33;2.33;;;;;25.45;42.44;101328.88;5073056;28;46347;-78
2023/07/20 09:20:18;;;;;;;;;2.00;2.00;;;;;25.45;42.24;101321.56;5062173;28;45479;-75
2023/07/20 09:22:44;;;;;;;;;1.33;1.33;;;;;25.47;42.20;101321.41;5067187;28;45641;-73
2023/07/20 09:25:15;;;;;;;;;3.00;2.67;;;;;25.49;42.23;101322.94;5070059;28;45925;-73
2023/07/20 09:27:45;;;;;;;;;1.67;1.67;;;;;25.52;41.63;101321.75;5067259;27;45574;-74
2023/07/20 09:30:13;;;;;;;;;1.67;1.67;;;;;25.52;41.89;101324.47;5071460;27;45433;-74
2023/07/20 09:32:43;;;;;;;;;1.00;1.00;;;;;25.53;42.09;101315.28;5068200;27;45604;-75
2023/07/20 09:35:19;;;;;;;;;1.00;1.00;;;;;25.56;41.74;101317.72;5064972;28;45587;-74
2023/07/20 09:37:57;;;;;;;;;4.00;3.00;;;;;25.57;42.18;101315.84;5069801;28;45447;-73
2023/07/20 09:40:24;;;;;;;;;1.00;1.00;;;;;25.59;41.94;101311.09;5066800;28;45644;-72
2023/07/20 09:42:52;;;;;;;;;3.33;2.67;;;;;25.60;41.74;101308.22;5062247;27;45784;-74
2023/07/20 09:45:17;;;;;;;;;1.33;1.33;;;;;25.62;41.33;101308.88;5062374;28;45697;-74
2023/07/20 09:47:43;;;;;;;;;2.00;2.00;;;;;25.63;41.29;101302.41;5060163;28;45995;-76
2023/07/20 09:50:10;;;;;;;;;2.00;2.00;;;;;25.64;40.97;101298.72;5063755;28;45463;-74
2023/07/20 09:52:44;;;;;;;;;4.00;3.00;;;;;25.68;41.35;101304.66;5063282;28;45564;-76
2023/07/20 09:55:11;;;;;;;;;0.67;0.67;;;;;25.69;41.52;101289.16;5066092;28;45526;-73
2023/07/20 09:57:36;;;;;;;;;4.33;1.33;;;;;25.69;40.97;101294.59;5055055;28;45397;-76
2023/07/20 10:00:13;;;;;;;;;2.00;2.00;;;;;25.71;40.57;101292.59;5064265;28;45396;-71
2023/07/20 10:02:44;;;;;;;;;2.00;2.00;;;;;25.73;40.98;101294.09;5066478;28;45789;-73
2023/07/20 10:05:15;;;;;;;;;2.00;2.00;;;;;25.73;40.07;101290.53;5070289;27;45777;-73
2023/07/20 10:07:46;;;;;;;;;3.00;2.00;;;;;25.74;40.85;101290.38;5070457;28;46153;-73
2023/07/20 10:10:14;;;;;;;;;2.33;2.33;;;;;25.73;41.14;101283.22;5058757;28;45491;-73
2023/07/20 10:12:41;;;;;;;;;1.00;1.00;;;;;25.74;41.04;101282.22;5061335;28;45709;-74
2023/07/20 10:15:15;;;;;;;;;1.00;1.00;;;;;25.77;41.11;101287.31;5065832;28;45809;-74
2023/07/20 10:17:53;;;;;;;;;2.00;2.00;;;;;25.75;41.21;101270.31;5056502;28;46218;-71
2023/07/20 10:20:20;;;;;;;;;1.00;1.00;;;;;25.77;41.30;101272.84;5079591;27;45419;-74
2023/07/20 10:22:48;;;;;;;;;4.00;1.00;;;;;25.78;41.02;101275.41;5058318;28;45578;-74
2023/07/20 10:25:14;;;;;;;;;5.00;2.00;;;;;25.79;40.79;101266.22;5061034;28;45504;-74
2023/07/20 10:27:40;;;;;;;;;2.00;2.00;;;;;25.79;40.90;101265.41;5065040;27;46905;-74
2023/07/20 10:30:06;;;;;;;;;1.00;1.00;;;;;25.79;41.11;101263.50;5059469;27;45815;-74
2023/07/20 10:32:32;;;;;;;;;0.00;0.00;;;;;25.81;40.96;101262.47;5064007;28;45525;-74
2023/07/20 10:34:57;;;;;;;;;2.00;2.00;;;;;25.81;40.74;101254.31;5055139;27;46170;-74
2023/07/20 10:37:52;;;;;;;;;3.00;3.00;;;;;25.81;41.18;101249.75;5057149;27;45672;-74
2023/07/20 10:40:24;;;;;;;;;2.00;2.00;;;;;25.79;41.17;101246.38;5061404;28;45897;-74
2023/07/20 10:42:49;;;;;;;;;2.33;2.33;;;;;25.80;41.07;101245.34;5061121;27;45550;-74
2023/07/20 10:45:16;;;;;;;;;1.00;1.00;;;;;25.79;41.05;101247.19;5063060;27;45634;-75
2023/07/20 10:47:45;;;;;;;;;1.67;1.67;;;;;25.81;41.09;101244.31;5063841;27;46578;-74
2023/07/20 10:50:12;;;;;;;;;1.67;1.00;;;;;25.79;40.95;101233.59;5091923;27;46248;-75
2023/07/20 10:52:39;;;;;;;;;1.00;1.00;;;;;25.82;41.50;101234.28;5062702;28;45877;-74
2023/07/20 10:55:14;;;;;;;;;2.33;2.33;;;;;25.83;41.37;101233.28;5058171;27;46224;-73
2023/07/20 10:57:40;;;;;;;;;2.33;1.67;;;;;25.83;41.11;101238.72;5063856;27;45696;-74
2023/07/20 11:00:13;;;;;;;;;2.67;2.67;;;;;25.81;41.08;101236.16;5065034;27;45670;-74
2023/07/20 11:02:45;;;;;;;;;1.67;1.67;;;;;25.79;41.80;101238.22;5061733;27;45779;-74
2023/07/20 11:05:36;;;;;;;;;2.00;1.00;;;;;25.84;42.13;101245.84;5068104;27;45549;-74
2023/07/20 11:08:43;;;;;;;;;1.00;1.00;;;;;25.85;42.04;101239.38;5070972;27;45565;-74
2023/07/20 11:11:28;;;;;;;;;1.00;1.00;;;;;25.85;42.01;101242.09;5071430;28;45555;-74
2023/07/20 11:14:02;;;;;;;;;2.00;2.00;;;;;25.86;42.27;101238.34;5059612;28;45519;-74
2023/07/20 11:16:34;;;;;;;;;1.33;1.33;;;;;25.86;42.14;101233.75;5059631;27;45399;-74
2023/07/20 11:19:00;;;;;;;;;3.00;1.67;;;;;25.85;42.19;101239.38;5066525;27;47595;-74
2023/07/20 11:21:26;;;;;;;;;2.00;2.00;;;;;25.84;41.70;101232.25;5066385;27;45459;-72
2023/07/20 11:23:53;;;;;;;;;3.00;3.00;;;;;25.86;41.85;101233.75;5061549;27;45548;-72
2023/07/20 11:26:19;;;;;;;;;1.67;1.67;;;;;25.84;42.09;101230.38;5072992;27;45595;-72
2023/07/20 11:28:49;;;;;;;;;1.00;1.00;;;;;25.84;41.93;101229.53;5060298;27;45439;-72
2023/07/20 11:31:16;;;;;;;;;4.00;3.00;;;;;25.83;41.43;101233.28;5068607;27;45517;-77
2023/07/20 11:33:42;;;;;;;;;3.00;1.67;;;;;25.84;41.99;101221.38;5065790;28;45434;-78
2023/07/20 11:36:09;;;;;;;;;3.33;1.67;;;;;25.88;41.75;101226.28;5062366;27;45584;-77
2023/07/20 11:38:34;;;;;;;;;4.00;4.00;;;;;25.90;41.91;101220.66;5066098;27;46595;-76
2023/07/20 11:40:59;;;;;;;;;1.00;1.00;;;;;25.91;41.51;101209.63;5064923;27;45506;-77
2023/07/20 11:43:25;;;;;;;;;2.00;2.00;;;;;25.94;41.30;101207.59;5070629;28;45705;-77
2023/07/20 11:45:51;;;;;;;;;1.00;1.00;;;;;25.95;41.81;101209.28;5069957;28;45470;-76
2023/07/20 11:48:16;;;;;;;;;2.33;2.33;;;;;25.97;41.43;101204.50;5068565;28;45665;-80
2023/07/20 11:50:42;;;;;;;;;2.00;2.00;;;;;25.98;41.36;101200.75;5075163;27;45655;-77
2023/07/20 11:53:08;;;;;;;;;2.00;1.00;;;;;25.99;41.90;101197.88;5064763;27;45438;-75
2023/07/20 11:55:33;;;;;;;;;2.67;2.67;;;;;25.99;41.54;101189.72;5066686;28;45369;-76
2023/07/20 11:58:03;;;;;;;;;2.00;2.00;;;;;26.06;41.30;101187.16;5070062;28;46899;-75
2023/07/20 12:00:28;;;;;;;;;2.00;2.00;;;;;26.10;41.27;101193.94;5071056;27;45608;-76
2023/07/20 12:02:54;;;;;;;;;1.00;1.00;;;;;26.07;41.65;101180.69;5074504;27;46361;-75
2023/07/20 12:05:23;;;;;;;;;4.00;2.00;;;;;26.12;41.02;101193.75;5068250;27;45401;-73
2023/07/20 12:07:51;;;;;;;;;1.00;1.00;;;;;26.14;41.91;101184.41;5065492;28;46417;-76
2023/07/20 12:10:24;;;;;;;;;2.00;2.00;;;;;26.14;41.32;101183.53;5064942;28;45687;-77
2023/07/20 12:12:49;;;;;;;;;2.67;2.67;;;;;26.15;41.52;101186.09;5063410;27;45644;-77
2023/07/20 12:15:35;;;;;;;;;1.00;1.00;;;;;26.17;41.08;101184.03;5058380;28;50355;-77
2023/07/20 12:18:01;;;;;;;;;1.33;1.33;;;;;26.20;41.33;101187.44;5063240;28;47486;-76
2023/07/20 12:20:36;;;;;;;;;1.00;1.00;;;;;26.22;41.54;101174.50;5064072;27;45446;-76
2023/07/20 12:23:20;;;;;;;;;1.00;1.00;;;;;26.19;41.50;101162.09;5058336;27;45407;-79
2023/07/20 12:25:47;;;;;;;;;1.00;1.00;;;;;26.21;41.24;101160.06;5059794;28;45557;-73
2023/07/20 12:28:17;;;;;;;;;3.00;1.00;;;;;26.23;41.51;101159.91;5061475;27;45564;-71
2023/07/20 12:30:44;;;;;;;;;3.00;2.00;;;;;26.23;41.75;101166.16;5064600;27;45580;-72
2023/07/20 12:33:11;;;;;;;;;1.00;1.00;;;;;26.23;41.33;101157.19;5059198;27;45425;-74
2023/07/20 12:35:37;;;;;;;;;3.00;3.00;;;;;26.24;41.61;101158.88;5057364;27;45821;-74
2023/07/20 12:38:02;;;;;;;;;2.00;2.00;;;;;26.28;41.56;101157.53;5078429;27;48348;-73
2023/07/20 12:40:28;;;;;;;;;1.00;1.00;;;;;26.28;41.35;101154.81;5076347;27;45455;-73
2023/07/20 12:42:54;;;;;;;;;1.67;1.67;;;;;26.28;41.62;101143.91;5090635;27;45504;-74
2023/07/20 12:45:19;;;;;;;;;2.00;1.67;;;;;26.29;41.40;101154.59;5059032;28;45524;-73
2023/07/20 12:47:45;;;;;;;;;3.67;2.33;;;;;26.30;41.22;101150.88;5057340;28;45452;-73
2023/07/20 12:50:10;;;;;;;;;1.00;1.00;;;;;26.30;41.64;101145.44;5058028;28;45583;-72
2023/07/20 12:52:38;;;;;;;;;1.67;1.67;;;;;26.33;41.14;101155.13;5062681;28;45836;-76
2023/07/20 12:55:04;;;;;;;;;3.00;2.00;;;;;26.34;41.60;101150.50;5058840;27;45558;-75
2023/07/20 12:57:29;;;;;;;;;1.00;1.00;;;;;26.34;41.49;101145.06;5056325;28;46564;-75
2023/07/20 12:59:54;;;;;;;;;1.00;1.00;;;;;26.36;41.70;101143.03;5065797;28;45364;-75
2023/07/20 13:02:20;;;;;;;;;3.33;1.00;;;;;26.39;41.04;101139.94;5071787;27;45399;-72
2023/07/20 13:04:45;;;;;;;;;2.67;1.00;;;;;26.36;41.81;101124.81;5071161;28;45417;-72
2023/07/20 13:07:13;;;;;;;;;2.00;2.00;;;;;26.35;40.91;101123.13;5063478;28;64398;-73
2023/07/20 13:09:39;;;;;;;;;1.00;1.00;;;;;26.38;41.24;101128.22;5061287;28;45456;-73
2023/07/20 13:12:04;;;;;;;;;1.00;1.00;;;;;26.37;41.41;101122.94;5071759;28;45733;-74
2023/07/20 13:14:30;;;;;;;;;2.33;2.33;;;;;26.41;40.88;101127.84;5060148;28;45484;-74
2023/07/20 13:16:55;;;;;;;;;1.00;1.00;;;;;26.40;41.60;101120.72;5070845;28;46241;-75
2023/07/20 13:19:21;;;;;;;;;1.00;1.00;;;;;26.41;41.69;101118.84;5063383;27;45686;-75
2023/07/20 13:21:46;;;;;;;;;2.00;2.00;;;;;26.43;41.38;101125.81;5082682;27;45818;-74
2023/07/20 13:24:12;;;;;;;;;2.00;2.00;;;;;26.43;40.97;101119.50;5071170;28;45571;-75
2023/07/20 13:26:37;;;;;;;;;0.00;0.00;;;;;26.42;41.40;101117.81;5066412;27;45469;-70
2023/07/20 13:29:02;;;;;;;;;2.00;0.33;;;;;26.41;41.08;101110.69;5057605;27;45546;-69
2023/07/20 13:31:28;;;;;;;;;1.00;1.00;;;;;26.39;41.39;101102.69;5070603;28;45676;-70
2023/07/20 13:33:53;;;;;;;;;1.33;1.33;;;;;26.46;41.48;101113.72;5068405;27;45832;-69
2023/07/20 13:36:20;;;;;;;;;2.00;2.00;;;;;26.48;42.22;101100.75;5067319;28;45666;-71
2023/07/20 13:38:46;;;;;;;;;1.00;1.00;;;;;26.46;42.07;101096.53;5067444;27;46194;-70
2023/07/20 13:41:11;;;;;;;;;2.00;2.00;;;;;26.51;41.98;101094.09;5059101;28;45662;-69
2023/07/20 13:43:36;;;;;;;;;1.00;1.00;;;;;26.53;42.18;101092.88;5062191;28;45476;-69
2023/07/20 13:46:02;;;;;;;;;2.00;2.00;;;;;26.56;41.85;101095.25;5065746;27;45994;-80
2023/07/20 13:48:27;;;;;;;;;1.00;1.00;;;;;26.58;42.35;101090.47;5060806;28;45403;-81
2023/07/20 13:50:53;;;;;;;;;1.00;1.00;;;;;26.61;42.15;101085.72;5062672;27;50325;-82
2023/07/20 13:53:18;;;;;;;;;1.00;1.00;;;;;26.64;42.06;101088.09;5058541;28;45324;-82
2023/07/20 13:55:44;;;;;;;;;2.67;1.67;;;;;26.64;42.46;101075.31;5065160;28;46500;-82
2023/07/20 13:58:12;;;;;;;;;0.00;0.00;;;;;26.66;42.80;101086.88;5054363;28;45471;-78
2023/07/20 14:00:37;;;;;;;;;2.00;0.00;;;;;26.69;42.45;101082.94;5067394;28;45364;-79
2023/07/20 14:03:03;;;;;;;;;1.33;1.00;;;;;26.72;42.62;101073.56;5072344;28;45621;-79
2023/07/20 14:05:28;;;;;;;;;1.00;1.00;;;;;26.70;42.57;101063.69;5060699;28;58636;-78
2023/07/20 14:07:53;;;;;;;;;1.00;1.00;;;;;26.75;42.33;101060.41;5069889;28;45371;-83
2023/07/20 14:10:19;;;;;;;;;1.00;1.00;;;;;26.76;42.18;101055.84;5060310;28;45444;-82
2023/07/20 14:12:45;;;;;;;;;0.00;0.00;;;;;26.78;43.07;101051.91;5071569;28;45875;-83
2023/07/20 14:15:11;;;;;;;;;0.67;0.67;;;;;26.80;42.42;101048.97;5059265;27;45585;-81
2023/07/20 14:17:36;;;;;;;;;0.67;0.67;;;;;26.80;43.20;101040.78;5074292;28;45511;-80
2023/07/20 14:20:05;;;;;;;;;1.00;1.00;;;;;26.81;42.65;101048.78;5062462;27;45442;-83
2023/07/20 14:22:30;;;;;;;;;1.00;1.00;;;;;26.77;42.37;101039.28;5068254;28;45815;-77
2023/07/20 14:24:56;;;;;;;;;2.00;1.33;;;;;26.75;42.25;101048.66;5074008;27;46059;-79
2023/07/20 14:27:21;;;;;;;;;1.67;1.67;;;;;26.69;41.52;101053.81;5061341;27;58457;-79
2023/07/20 14:29:46;;;;;;;;;1.00;1.00;;;;;26.66;42.04;101054.22;5073866;27;45585;-80
2023/07/20 14:32:12;;;;;;;;;1.00;1.00;;;;;26.61;42.11;101050.31;5070477;27;45656;-79
2023/07/20 14:34:37;;;;;;;;;1.67;1.67;;;;;26.57;41.38;101042.50;5074976;27;47313;-79
2023/07/20 14:37:04;;;;;;;;;1.00;1.00;;;;;26.52;41.94;101044.94;5071154;27;59901;-80
2023/07/20 14:39:29;;;;;;;;;1.00;1.00;;;;;26.50;41.91;101048.88;5075415;27;45420;-80
2023/07/20 14:41:55;;;;;;;;;1.00;1.00;;;;;26.51;41.39;101043.25;5069940;28;45600;-77
2023/07/20 14:44:20;;;;;;;;;1.33;1.33;;;;;26.52;41.28;101042.22;5073205;27;46068;-78
2023/07/20 14:46:46;;;;;;;;;2.00;2.00;;;;;26.52;41.29;101038.66;5065528;27;45576;-75
2023/07/20 14:49:11;;;;;;;;;3.00;3.00;;;;;26.53;41.68;101032.19;5064914;28;45675;-78
2023/07/20 14:51:42;;;;;;;;;2.67;1.00;;;;;26.56;41.80;101034.53;5057251;27;45424;-78
2023/07/20 14:54:08;;;;;;;;;2.67;2.33;;;;;26.54;41.83;101021.13;5064636;27;45653;-75
2023/07/20 14:56:34;;;;;;;;;2.00;1.00;;;;;26.55;41.80;101017.38;5067524;28;45572;-73
2023/07/20 14:59:00;;;;;;;;;1.00;1.00;;;;;26.58;41.60;101014.25;5064543;27;45710;-74
2023/07/20 15:01:25;;;;;;;;;2.67;2.67;;;;;26.58;41.38;101019.69;5064598;28;45637;-74
2023/07/20 15:03:53;;;;;;;;;1.67;1.67;;;;;26.60;41.41;101029.59;5066187;27;46136;-74
2023/07/20 15:06:18;;;;;;;;;1.33;1.00;;;;;26.60;41.32;101018.69;5066761;28;45535;-77
2023/07/20 15:08:43;;;;;;;;;1.33;1.33;;;;;26.60;41.61;101022.25;5087494;27;45407;-74
2023/07/20 15:11:09;;;;;;;;;1.00;0.00;;;;;26.58;42.08;101016.16;5063396;28;45794;-77
2023/07/20 15:13:34;;;;;;;;;1.33;1.33;;;;;26.55;41.75;101020.09;5062908;27;51103;-77
2023/07/20 15:15:59;;;;;;;;;2.00;2.00;;;;;26.52;41.56;101020.44;5068367;27;55097;-78
2023/07/20 15:18:25;;;;;;;;;2.33;1.00;;;;;26.49;42.08;101019.97;5069332;27;45479;-76
2023/07/20 15:20:53;;;;;;;;;1.00;1.00;;;;;26.44;42.15;101013.19;5063427;27;45840;-75
2023/07/20 15:23:18;;;;;;;;;2.67;0.67;;;;;26.39;41.73;101009.31;5071808;27;45505;-74
2023/07/20 15:25:44;;;;;;;;;0.67;0.67;;;;;26.38;41.63;101015.78;5058436;27;45587;-76
2023/07/20 15:28:09;;;;;;;;;1.00;1.00;;;;;26.34;41.95;101020.75;5069862;27;51576;-76
2023/07/20 15:30:34;;;;;;;;;2.33;1.00;;;;;26.29;41.95;101020.44;5059788;27;45415;-77
2023/07/20 15:33:00;;;;;;;;;0.67;0.67;;;;;26.23;42.35;101015.72;5062460;27;46165;-74
2023/07/20 15:35:25;;;;;;;;;2.00;2.00;;;;;26.22;41.89;101020.28;5058406;27;45450;-75
2023/07/20 15:37:50;;;;;;;;;2.00;2.00;;;;;26.22;42.40;101017.56;5058291;27;46186;-77
2023/07/20 15:40:16;;;;;;;;;2.00;2.00;;;;;26.20;42.42;101008.75;5066538;27;45697;-76
2023/07/20 15:42:41;;;;;;;;;1.00;1.00;;;;;26.18;42.60;101003.50;5065967;27;46443;-77
2023/07/20 15:45:07;;;;;;;;;0.00;0.00;;;;;26.18;42.03;101011.66;5061439;27;45835;-77
2023/07/20 15:47:33;;;;;;;;;1.00;1.00;;;;;26.17;42.29;101007.22;5060263;27;45492;-76
2023/07/20 15:49:58;;;;;;;;;1.00;1.00;;;;;26.19;42.55;101007.03;5058518;27;45900;-76
2023/07/20 15:52:23;;;;;;;;;2.00;1.00;;;;;26.19;42.68;101007.03;5057977;27;46279;-77
2023/07/20 15:54:50;;;;;;;;;1.00;1.00;;;;;26.16;42.15;100999.25;5053906;28;45515;-77
2023/07/20 15:57:15;;;;;;;;;1.00;1.00;;;;;26.14;42.37;100999.44;5055893;27;45336;-77
2023/07/20 15:59:40;;;;;;;;;0.67;0.67;;;;;26.18;42.65;100994.47;5059441;28;45521;-77
2023/07/20 16:02:06;;;;;;;;;1.67;0.33;;;;;26.17;42.16;101004.50;5056238;28;45517;-78
2023/07/20 16:04:32;;;;;;;;;1.00;1.00;;;;;26.18;42.75;101002.63;5055232;28;45772;-79
2023/07/20 16:06:57;;;;;;;;;1.00;1.00;;;;;26.23;42.57;100999.38;5055355;27;46479;-77
2023/07/20 16:09:23;;;;;;;;;1.00;1.00;;;;;26.22;42.22;100990.38;5053680;28;45584;-76
2023/07/20 16:11:48;;;;;;;;;1.33;1.33;;;;;26.22;42.44;100984.94;5057938;27;45642;-74
2023/07/20 16:14:13;;;;;;;;;1.00;1.00;;;;;26.25;42.68;100970.16;5054131;28;45905;-74
2023/07/20 16:16:40;;;;;;;;;0.33;0.33;;;;;26.27;42.43;100978.97;5069224;28;45669;-75
2023/07/20 16:19:05;;;;;;;;;0.67;0.67;;;;;26.26;42.50;100971.81;5073223;28;45622;-74
2023/07/20 16:21:32;;;;;;;;;0.00;0.00;;;;;26.28;42.03;100975.22;5070208;27;45623;-77
2023/07/20 16:23:57;;;;;;;;;1.00;1.00;;;;;26.26;42.59;100972.69;5085834;27;45308;-78
2023/07/20 16:26:23;;;;;;;;;1.33;1.00;;;;;26.23;42.78;100981.16;5058183;27;45666;-76
2023/07/20 16:28:48;;;;;;;;;0.33;0.33;;;;;26.20;41.96;100967.94;5073323;27;48590;-75
2023/07/20 16:31:15;;;;;;;;;3.00;1.33;;;;;26.18;42.31;100962.69;5065992;27;46213;-73
2023/07/20 16:33:42;;;;;;;;;1.00;1.00;;;;;26.16;41.99;100970.16;5068060;27;45538;-74
2023/07/20 16:36:11;;;;;;;;;1.00;1.00;;;;;26.15;42.36;100970.34;5095408;27;45516;-73
2023/07/20 16:38:37;;;;;;;;;1.00;1.00;;;;;26.14;42.47;100960.50;5073834;27;45546;-76
2023/07/20 16:41:03;;;;;;;;;0.33;0.00;;;;;26.12;42.53;100959.84;5069934;27;46085;-76
2023/07/20 16:43:29;;;;;;;;;2.67;1.33;;;;;26.10;42.69;100957.28;5072442;27;45613;-77
2023/07/20 16:46:02;;;;;;;;;1.00;1.00;;;;;26.10;42.89;100959.16;5065099;27;45653;-76
2023/07/20 16:48:28;;;;;;;;;1.67;1.33;;;;;26.10;42.40;100959.16;5067907;28;45604;-76
2023/07/20 16:50:53;;;;;;;;;2.00;1.00;;;;;26.10;42.40;100956.44;5067604;27;45491;-78
2023/07/20 16:53:18;;;;;;;;;1.00;1.00;;;;;26.15;42.21;100970.34;5063531;28;45399;-80
2023/07/20 16:55:47;;;;;;;;;2.67;2.67;;;;;26.18;42.63;100954.53;5062900;27;46052;-78
2023/07/20 16:58:12;;;;;;;;;1.00;1.00;;;;;26.24;42.49;100960.25;5061608;27;45732;-77
2023/07/20 17:00:38;;;;;;;;;1.00;1.00;;;;;26.28;42.15;100950.75;5061362;28;45578;-78
2023/07/20 17:03:03;;;;;;;;;6.33;3.33;;;;;26.30;42.38;100943.22;5064878;27;45868;-81
2023/07/20 17:05:29;;;;;;;;;1.67;0.33;;;;;26.34;41.87;100955.44;5070010;28;45679;-80
2023/07/20 17:07:55;;;;;;;;;3.33;2.00;;;;;26.36;41.97;100941.66;5063192;28;45426;-80
2023/07/20 17:10:22;;;;;;;;;1.33;1.33;;;;;26.39;42.67;100954.88;5067265;28;45833;-80
2023/07/20 17:12:47;;;;;;;;;2.00;2.00;;;;;26.39;42.43;100952.16;5089374;27;45488;-81
2023/07/20 17:15:15;;;;;;;;;1.00;1.00;;;;;26.39;41.94;100944.84;5064048;27;45654;-80